Time;durP1;ratioP1;P1;durP2;ratioP2;P2;SDS_P1;SDS_P2;PMS_P1;PMS_P2;Temp;Humidity;BMP_temperature;BMP_pressure;BME280_temperature;BME280_humidity;BME280_pressure;Samples;Min_cycle;Max_cycle;Signal;HPM_P1;HPM_P2
2022/11/22 00:00:18;;;;;;;5.38;3.70;;;;;;;8.47;100.00;96238.03;5004578;28;20062;-65
2022/11/22 00:02:45;;;;;;;9.95;4.10;;;;;;;8.43;100.00;96239.94;5000021;28;20104;-65
2022/11/22 00:05:12;;;;;;;6.53;3.80;;;;;;;8.43;100.00;96239.94;4985014;28;20050;-54
2022/11/22 00:07:39;;;;;;;4.40;3.40;;;;;;;8.04;100.00;96200.03;4983883;28;20137;-65
2022/11/22 00:10:09;;;;;;;5.47;4.13;;;;;;;8.03;100.00;96198.44;4984868;28;20058;-64
2022/11/22 00:12:36;;;;;;;7.20;4.13;;;;;;;8.40;100.00;96248.97;4985379;28;20153;-55
2022/11/22 00:15:04;;;;;;;7.15;4.13;;;;;;;8.48;100.00;96242.38;5004480;28;20137;-64
2022/11/22 00:17:31;;;;;;;6.20;4.18;;;;;;;8.31;100.00;96242.97;5004606;28;20134;-55
2022/11/22 00:19:57;;;;;;;8.73;3.80;;;;;;;8.21;100.00;96249.09;5004792;28;20108;-64
2022/11/22 00:22:24;;;;;;;4.72;3.72;;;;;;;8.14;100.00;96254.53;5004085;28;20104;-65
2022/11/22 00:24:51;;;;;;;8.10;4.70;;;;;;;8.15;100.00;96250.59;5004674;28;20511;-64
2022/11/22 00:27:19;;;;;;;6.18;4.43;;;;;;;8.09;100.00;96260.38;5004455;28;20081;-65
2022/11/22 00:29:45;;;;;;;5.63;4.88;;;;;;;8.11;100.00;96244.25;5004391;28;20609;-57
2022/11/22 00:32:13;;;;;;;7.90;5.32;;;;;;;7.64;100.00;96201.47;5004227;28;20060;-65
2022/11/22 00:34:39;;;;;;;7.03;4.68;;;;;;;7.88;100.00;96254.53;5004383;28;20046;-65
2022/11/22 00:37:06;;;;;;;8.05;4.68;;;;;;;7.73;100.00;96320.50;5006983;28;20459;-55
2022/11/22 00:39:33;;;;;;;6.70;4.20;;;;;;;7.37;100.00;96199.06;5005905;28;20428;-55
2022/11/22 00:42:00;;;;;;;6.63;4.43;;;;;;;7.12;100.00;96173.09;5008002;28;20112;-64
2022/11/22 00:44:27;;;;;;;7.60;4.43;;;;;;;7.40;100.00;96248.72;5008311;28;20638;-64
2022/11/22 00:46:53;;;;;;;8.10;5.35;;;;;;;7.50;100.00;96259.13;5007621;28;20563;-63
2022/11/22 00:49:20;;;;;;;7.03;4.72;;;;;;;7.56;100.00;96260.38;5008198;28;20229;-63
2022/11/22 00:51:47;;;;;;;8.85;5.32;;;;;;;7.59;100.00;96273.41;5008378;28;20053;-55
2022/11/22 00:54:14;;;;;;;9.65;5.57;;;;;;;7.60;100.00;96268.72;5007691;28;20141;-56
2022/11/22 00:56:40;;;;;;;8.88;5.20;;;;;;;7.59;100.00;96272.63;5007310;28;20500;-63
2022/11/22 00:59:07;;;;;;;7.80;4.85;;;;;;;7.58;100.00;96274.59;5007925;28;20046;-55
2022/11/22 01:01:33;;;;;;;6.07;4.70;;;;;;;7.51;100.00;96271.72;5007438;28;20064;-55
2022/11/22 01:04:00;;;;;;;6.82;4.68;;;;;;;7.64;100.00;96264.03;5007756;28;20077;-64
2022/11/22 01:06:27;;;;;;;7.10;5.15;;;;;;;7.60;100.00;96263.97;5007358;28;20148;-56
2022/11/22 01:08:53;;;;;;;7.72;5.82;;;;;;;7.57;100.00;96261.97;5006293;28;20053;-54
2022/11/22 01:11:20;;;;;;;8.82;6.25;;;;;;;7.29;100.00;96214.69;5007204;28;20140;-56
2022/11/22 01:13:47;;;;;;;8.45;6.00;;;;;;;7.10;100.00;96189.97;5007480;28;20126;-55
2022/11/22 01:16:14;;;;;;;7.75;5.18;;;;;;;7.11;100.00;96202.56;5005975;28;20088;-56
2022/11/22 01:18:41;;;;;;;7.85;5.40;;;;;;;7.61;100.00;96271.09;5007465;28;20495;-55
2022/11/22 01:21:08;;;;;;;6.60;4.70;;;;;;;7.55;100.00;96267.06;5007632;28;20137;-63
2022/11/22 01:23:35;;;;;;;8.50;5.35;;;;;;;7.52;100.00;96262.28;5007398;28;20136;-56
2022/11/22 01:26:02;;;;;;;6.72;4.53;;;;;;;7.04;100.00;96202.47;5006796;28;20647;-55
2022/11/22 01:28:29;;;;;;;6.07;4.13;;;;;;;6.95;100.00;96226.72;5007667;28;20038;-54
2022/11/22 01:30:55;;;;;;;5.20;4.03;;;;;;;7.39;100.00;96280.19;5007473;28;20140;-64
2022/11/22 01:33:22;;;;;;;7.00;4.22;;;;;;;7.24;100.00;96288.56;5007065;28;20137;-63
2022/11/22 01:35:48;;;;;;;11.60;4.90;;;;;;;7.10;100.00;96294.63;5006578;28;20142;-56
2022/11/22 01:38:15;;;;;;;7.78;4.53;;;;;;;6.92;100.00;96296.25;5007377;28;20049;-56
2022/11/22 01:40:42;;;;;;;5.95;3.90;;;;;;;6.94;100.00;96293.91;5006691;28;20096;-64
2022/11/22 01:43:26;;;;;;;6.55;4.43;;;;;;;6.92;100.00;96293.50;5007269;28;20157;-58
2022/11/22 01:45:55;;;;;;;8.52;4.75;;;;;;;6.40;100.00;96210.75;5007160;28;20050;-57
2022/11/22 01:48:25;;;;;;;16.20;8.35;;;;;;;6.94;100.00;96307.69;5005900;28;20140;-58
2022/11/22 01:51:20;;;;;;;11.77;5.53;;;;;;;6.95;100.00;96298.28;5006840;28;20141;-64
2022/11/22 01:53:47;;;;;;;11.07;5.75;;;;;;;6.83;100.00;96292.16;5010700;28;20128;-56
2022/11/22 01:56:16;;;;;;;12.18;6.25;;;;;;;6.86;100.00;96289.44;5006713;28;20199;-64
2022/11/22 01:58:48;;;;;;;10.73;6.25;;;;;;;6.86;100.00;96292.19;5006456;28;20477;-55
2022/11/22 02:01:15;;;;;;;9.52;5.35;;;;;;;6.84;100.00;96290.97;5006465;28;20152;-64
2022/11/22 02:03:45;;;;;;;6.78;4.10;;;;;;;6.58;100.00;96288.09;5004912;28;20052;-56
2022/11/22 02:06:13;;;;;;;6.32;4.22;;;;;;;6.64;100.00;96303.94;5006534;28;20116;-64
2022/11/22 02:09:09;;;;;;;6.70;4.35;;;;;;;6.60;100.00;96302.28;5006407;28;20566;-55
2022/11/22 02:11:40;;;;;;;9.70;4.93;;;;;;;6.49;100.00;96307.59;5006039;28;20499;-56
2022/11/22 02:14:08;;;;;;;10.07;5.18;;;;;;;6.50;100.00;96292.66;5004849;28;20085;-64
2022/11/22 02:16:36;;;;;;;7.40;4.35;;;;;;;6.51;100.00;96299.78;5006344;28;20124;-65
2022/11/22 02:19:04;;;;;;;6.80;5.43;;;;;;;6.16;100.00;96266.03;5006076;28;20104;-58
2022/11/22 02:21:31;;;;;;;5.18;3.78;;;;;;;6.50;100.00;96309.16;5006436;28;20089;-56
2022/11/22 02:24:34;;;;;;;5.95;4.13;;;;;;;6.45;100.00;96311.44;5006418;28;20136;-64
2022/11/22 02:27:01;;;;;;;4.82;3.22;;;;;;;6.41;100.00;96305.03;5006001;28;20599;-58
2022/11/22 02:29:30;;;;;;;5.65;4.03;;;;;;;6.37;100.00;96315.97;5004904;28;20065;-58
2022/11/22 02:31:57;;;;;;;7.00;3.88;;;;;;;6.35;100.00;96306.50;5004447;28;20653;-64
2022/11/22 02:34:23;;;;;;;6.75;4.30;;;;;;;6.31;100.00;96306.41;5006571;28;20132;-56
2022/11/22 02:36:53;;;;;;;8.32;4.38;;;;;;;6.25;100.00;96307.84;5006390;28;20160;-64
2022/11/22 02:39:25;;;;;;;5.97;3.95;;;;;;;6.10;100.00;96303.22;5006237;28;20141;-55
2022/11/22 02:41:54;;;;;;;6.72;4.35;;;;;;;6.16;100.00;96312.78;5006295;28;20053;-64
2022/11/22 02:44:22;;;;;;;9.63;4.95;;;;;;;6.09;100.00;96304.34;5006530;28;20132;-57
2022/11/22 02:46:51;;;;;;;7.93;4.25;;;;;;;5.38;100.00;96204.97;5005884;28;20089;-56
2022/11/22 02:49:21;;;;;;;7.88;4.93;;;;;;;6.03;100.00;96300.31;5005341;28;20085;-56
2022/11/22 02:51:48;;;;;;;7.47;5.63;;;;;;;5.93;100.00;96278.88;5005306;28;20145;-56
2022/11/22 02:54:15;;;;;;;8.02;5.20;;;;;;;5.97;100.00;96296.25;5004455;28;20477;-57
2022/11/22 02:56:41;;;;;;;7.97;5.00;;;;;;;5.86;100.00;96289.72;5004217;28;20658;-63
2022/11/22 02:59:08;;;;;;;8.57;5.00;;;;;;;5.30;100.00;96227.94;5005411;28;20120;-56
2022/11/22 03:01:35;;;;;;;6.82;4.43;;;;;;;5.72;100.00;96322.34;5005295;28;20749;-63
2022/11/22 03:04:02;;;;;;;14.82;6.07;;;;;;;5.24;100.00;96322.69;5005337;28;20521;-63
2022/11/22 03:06:29;;;;;;;16.95;5.88;;;;;;;4.97;100.00;96332.59;5005245;28;20485;-55
2022/11/22 03:08:56;;;;;;;20.15;6.47;;;;;;;4.99;100.00;96326.75;5005409;28;20112;-56
2022/11/22 03:11:23;;;;;;;8.90;4.45;;;;;;;5.00;100.00;96296.19;5004583;28;20066;-60
2022/11/22 03:13:50;;;;;;;8.27;4.35;;;;;;;5.18;100.00;96319.44;5005293;28;20062;-55
2022/11/22 03:16:17;;;;;;;8.55;4.78;;;;;;;5.22;100.00;96324.97;5005265;28;20480;-64
2022/11/22 03:18:43;;;;;;;9.70;4.55;;;;;;;4.96;100.00;96300.00;5005437;28;20049;-55
2022/11/22 03:21:10;;;;;;;10.93;5.47;;;;;;;4.56;100.00;96325.59;5005312;28;20202;-55
2022/11/22 03:23:37;;;;;;;6.55;4.47;;;;;;;5.25;100.00;96343.53;5004998;28;20484;-55
2022/11/22 03:26:08;;;;;;;7.55;4.25;;;;;;;5.22;100.00;96342.25;5005112;28;20050;-63
2022/11/22 03:28:35;;;;;;;10.80;4.45;;;;;;;4.89;100.00;96277.84;5005203;28;20160;-63
2022/11/22 03:31:06;;;;;;;7.97;4.72;;;;;;;4.80;100.00;96282.72;5005030;28;20104;-55
2022/11/22 03:33:34;;;;;;;7.07;4.57;;;;;;;5.19;100.00;96350.41;5005066;28;20050;-56
2022/11/22 03:36:01;;;;;;;5.82;4.03;;;;;;;4.95;100.00;96303.91;5005282;28;20100;-61
2022/11/22 03:38:28;;;;;;;5.50;3.50;;;;;;;5.19;100.00;96353.13;5005405;28;20136;-64
2022/11/22 03:40:54;;;;;;;7.93;4.00;;;;;;;5.16;100.00;96348.34;5005305;28;20140;-55
2022/11/22 03:43:22;;;;;;;6.38;3.80;;;;;;;4.83;100.00;96334.13;5005099;28;20081;-57
2022/11/22 03:45:48;;;;;;;8.13;4.38;;;;;;;4.94;100.00;96357.19;5003448;28;20141;-64
2022/11/22 03:48:15;;;;;;;9.80;5.35;;;;;;;4.83;100.00;96351.41;5005309;28;20136;-55
2022/11/22 03:50:41;;;;;;;7.28;4.70;;;;;;;4.35;100.00;96275.63;5004753;28;20582;-57
2022/11/22 03:53:08;;;;;;;7.00;4.32;;;;;;;4.83;100.00;96353.34;5005233;28;20491;-55
2022/11/22 03:55:35;;;;;;;6.70;4.70;;;;;;;4.84;100.00;96360.44;5004765;28;20116;-55
2022/11/22 03:58:03;;;;;;;10.48;5.40;;;;;;;4.84;100.00;96365.94;5004796;28;20100;-64
2022/11/22 04:00:30;;;;;;;20.60;10.88;;;;;;;4.78;100.00;96375.53;5004984;28;20050;-56
2022/11/22 04:02:57;;;;;;;22.10;10.38;;;;;;;4.63;100.00;96353.19;5005180;28;20053;-56
2022/11/22 04:05:23;;;;;;;11.70;7.30;;;;;;;4.74;100.00;96380.13;5005276;28;20602;-56
2022/11/22 04:07:56;;;;;;;14.48;8.50;;;;;;;4.75;100.00;96370.75;5005514;28;20112;-55
2022/11/22 04:10:23;;;;;;;13.98;7.75;;;;;;;4.23;100.00;96327.75;5005195;28;20085;-64
2022/11/22 04:12:50;;;;;;;10.52;5.95;;;;;;;3.85;100.00;96241.66;5009021;28;20458;-64
2022/11/22 04:15:17;;;;;;;9.05;4.40;;;;;;;4.57;100.00;96371.06;5008421;28;20531;-64
2022/11/22 04:17:44;;;;;;;9.23;5.10;;;;;;;4.55;100.00;96384.31;5008729;28;20049;-55
2022/11/22 04:23:14;;;;;;;11.25;6.38;;;;;;;3.69;100.00;96285.41;5008871;28;20050;-64
2022/11/22 04:25:44;;;;;;;11.82;4.93;;;;;;;4.25;100.00;96396.72;5007116;28;20555;-56
2022/11/22 04:28:13;;;;;;;7.07;3.90;;;;;;;4.02;100.00;96387.41;5008743;28;20061;-63
2022/11/22 04:33:26;;;;;;;6.40;4.05;;;;;;;4.17;100.00;96416.81;5008732;28;20160;-56
2022/11/22 04:35:53;;;;;;;6.63;4.13;;;;;;;3.53;100.00;96314.63;5008285;28;20050;-56
2022/11/22 04:38:20;;;;;;;9.18;3.83;;;;;;;4.01;100.00;96391.28;5006546;28;20612;-64
2022/11/22 04:40:47;;;;;;;7.82;3.95;;;;;;;4.06;100.00;96415.69;5007997;28;20050;-63
2022/11/22 04:46:11;;;;;;;8.52;4.53;;;;;;;3.59;100.00;96351.59;5008142;28;20049;-64
2022/11/22 04:48:38;;;;;;;9.63;5.15;;;;;;;3.80;100.00;96387.88;5006764;28;20436;-64
2022/11/22 04:53:51;;;;;;;33.42;14.50;;;;;;;3.96;100.00;96429.88;5007932;28;20061;-53
2022/11/22 04:56:17;;;;;;;21.02;10.07;;;;;;;3.46;100.00;96374.63;5006570;28;20461;-62
2022/11/22 04:58:44;;;;;;;14.18;6.72;;;;;;;1.05;100.00;96002.53;5007604;28;20050;-54
2022/11/22 05:01:11;;;;;;;7.00;3.72;;;;;;;3.87;100.00;96450.31;5002380;28;20105;-62
2022/11/22 05:03:38;;;;;;;8.32;4.22;;;;;;;3.80;100.00;96456.34;4987049;28;20058;-62
2022/11/22 05:06:04;;;;;;;7.25;4.45;;;;;;;3.57;100.00;96457.13;4988353;28;20050;-62
2022/11/22 05:08:31;;;;;;;13.30;5.80;;;;;;;3.51;100.00;96470.22;4987017;28;20054;-53
2022/11/22 05:10:58;;;;;;;10.70;5.25;;;;;;;3.38;100.00;96457.66;4987597;28;20148;-62
2022/11/22 05:13:34;;;;;;;13.32;5.68;;;;;;;3.39;100.00;96478.41;5006242;28;20050;-54
2022/11/22 05:16:03;;;;;;;16.10;6.72;;;;;;;3.39;100.00;96486.63;5007331;28;20058;-62
2022/11/22 05:18:30;;;;;;;16.73;7.50;;;;;;;3.56;100.00;96483.69;5007685;28;20577;-61
2022/11/22 05:20:59;;;;;;;17.17;8.65;;;;;;;3.53;100.00;96506.28;5007108;28;20054;-62
2022/11/22 05:26:11;;;;;;;31.05;12.98;;;;;;;3.26;100.00;96500.59;5006965;28;20053;-61
2022/11/22 05:28:38;;;;;;;25.23;13.25;;;;;;;3.47;100.00;96512.28;5007193;28;20140;-61
2022/11/22 05:31:09;;;;;;;27.83;14.13;;;;;;;3.50;100.00;96509.69;5007400;28;20085;-61
2022/11/22 05:33:38;;;;;;;20.17;11.95;;;;;;;3.54;100.00;96509.81;5007165;28;20046;-62
2022/11/22 05:36:06;;;;;;;13.48;8.98;;;;;;;3.52;100.00;96504.69;5006988;28;20056;-57
2022/11/22 05:38:34;;;;;;;20.65;10.00;;;;;;;3.03;100.00;96443.50;5005286;28;20124;-54
2022/11/22 05:41:02;;;;;;;17.00;10.65;;;;;;;3.59;100.00;96515.84;5007138;28;20050;-61
2022/11/22 05:43:28;;;;;;;16.40;9.32;;;;;;;3.69;100.00;96512.69;5007187;28;20116;-61
2022/11/22 05:45:55;;;;;;;9.73;5.88;;;;;;;3.82;100.00;96505.31;5005405;28;20087;-57
2022/11/22 05:48:22;;;;;;;10.73;6.75;;;;;;;3.85;100.00;96508.16;5007383;28;20045;-55
2022/11/22 05:50:48;;;;;;;8.13;4.55;;;;;;;3.86;100.00;96507.03;5006215;28;20061;-56
2022/11/22 05:53:15;;;;;;;10.40;5.63;;;;;;;3.86;100.00;96507.03;5006217;28;20046;-61
2022/11/22 05:55:41;;;;;;;15.77;6.65;;;;;;;3.53;100.00;96435.09;5007462;28;20128;-54
2022/11/22 05:58:08;;;;;;;15.10;8.05;;;;;;;4.00;100.00;96504.75;5005149;28;20513;-63
2022/11/22 06:00:35;;;;;;;14.98;8.20;;;;;;;3.71;100.00;96436.50;5006676;28;20241;-54
2022/11/22 06:03:02;;;;;;;19.13;9.05;;;;;;;4.27;100.00;96503.28;5006657;28;20129;-63
2022/11/22 06:05:29;;;;;;;14.65;7.68;;;;;;;4.23;100.00;96497.69;5006681;28;20432;-56
2022/11/22 06:07:58;;;;;;;19.35;10.13;;;;;;;4.34;100.00;96526.25;5006457;28;20132;-54
2022/11/22 06:10:25;;;;;;;17.92;9.30;;;;;;;4.45;100.00;96521.91;5001915;28;20556;-54
2022/11/22 06:12:52;;;;;;;9.05;5.90;;;;;;;4.37;100.00;96531.03;5006536;28;20138;-56
2022/11/22 06:15:19;;;;;;;9.75;5.28;;;;;;;4.25;100.00;96500.88;5001063;28;20873;-66
2022/11/22 06:17:46;;;;;;;9.98;6.00;;;;;;;4.62;100.00;96538.09;5000505;28;20141;-61
2022/11/22 06:20:13;;;;;;;8.77;5.50;;;;;;;4.70;100.00;96519.91;5003562;28;20104;-66
2022/11/22 06:22:40;;;;;;;10.57;5.20;;;;;;;4.16;100.00;96478.28;5006018;28;20053;-57
2022/11/22 06:25:08;;;;;;;13.30;6.85;;;;;;;4.95;100.00;96561.84;5023361;28;20057;-69
2022/11/22 06:27:34;;;;;;;11.00;6.78;;;;;;;4.90;100.00;96545.63;5018963;28;20054;-60
2022/11/22 06:30:01;;;;;;;12.23;6.78;;;;;;;5.13;99.21;96568.66;5026236;28;20102;-57
2022/11/22 06:32:31;;;;;;;17.92;8.88;;;;;;;5.24;97.51;96559.59;5008206;28;20521;-57
2022/11/22 06:34:59;;;;;;;12.98;8.35;;;;;;;5.23;97.61;96568.19;5005383;28;20425;-55
2022/11/22 06:37:25;;;;;;;17.38;10.10;;;;;;;5.28;97.29;96573.44;5011110;28;20077;-71
2022/11/22 06:39:52;;;;;;;16.00;8.88;;;;;;;5.39;97.88;96577.28;5011980;28;20115;-62
2022/11/22 06:42:18;;;;;;;17.10;9.00;;;;;;;5.70;94.67;96582.88;5003391;28;20054;-58
2022/11/22 06:44:45;;;;;;;14.13;9.10;;;;;;;5.83;93.12;96581.72;5021558;28;20064;-61
2022/11/22 06:47:12;;;;;;;17.05;9.40;;;;;;;5.97;92.75;96584.84;4995474;28;20056;-64
2022/11/22 06:49:39;;;;;;;14.63;8.27;;;;;;;6.18;92.61;96590.13;5025003;28;20072;-58
2022/11/22 06:52:05;;;;;;;13.63;8.30;;;;;;;6.29;91.30;96583.75;5011520;28;20057;-64
2022/11/22 06:54:32;;;;;;;14.25;8.70;;;;;;;6.34;90.21;96583.47;5012352;28;20050;-64
2022/11/22 06:56:59;;;;;;;18.80;10.73;;;;;;;6.52;88.91;96587.47;5003938;28;20054;-63
2022/11/22 06:59:25;;;;;;;14.60;9.60;;;;;;;6.67;87.86;96588.63;5005271;28;20144;-59
2022/11/22 07:01:52;;;;;;;22.95;12.82;;;;;;;6.60;88.19;96589.25;5005126;28;20053;-64
2022/11/22 07:04:19;;;;;;;17.75;7.85;;;;;;;6.58;87.30;96568.72;5003988;28;20441;-56
2022/11/22 07:06:46;;;;;;;10.45;6.30;;;;;;;6.38;87.48;96559.59;5005126;28;20053;-65
2022/11/22 07:09:12;;;;;;;10.82;5.72;;;;;;;6.84;88.62;96583.56;5005797;28;20119;-67
2022/11/22 07:11:40;;;;;;;12.40;7.45;;;;;;;7.01;87.23;96591.41;5005629;28;20061;-56
2022/11/22 07:14:08;;;;;;;15.50;8.32;;;;;;;7.18;87.61;96596.53;5005242;28;20165;-55
2022/11/22 07:16:37;;;;;;;7.35;5.05;;;;;;;7.40;85.13;96601.34;5005186;28;20094;-57
2022/11/22 07:19:05;;;;;;;8.98;4.60;;;;;;;7.58;82.07;96608.06;5005619;28;20050;-61
2022/11/22 07:21:31;;;;;;;9.95;5.25;;;;;;;7.69;81.23;96598.03;5020597;28;20084;-57
2022/11/22 07:23:58;;;;;;;15.27;8.20;;;;;;;7.84;80.34;96585.31;5024453;28;20143;-61
2022/11/22 07:26:25;;;;;;;14.52;9.00;;;;;;;8.01;80.29;96586.84;5017978;28;20056;-59
2022/11/22 07:28:52;;;;;;;15.65;6.70;;;;;;;7.95;79.33;96544.19;5003708;28;20057;-58
2022/11/22 07:31:19;;;;;;;9.93;5.80;;;;;;;8.35;77.24;96580.41;5004286;28;20509;-61
2022/11/22 07:33:45;;;;;;;10.20;5.32;;;;;;;8.15;78.17;96592.63;5004485;28;20045;-58
2022/11/22 07:36:15;;;;;;;9.27;6.38;;;;;;;8.45;78.07;96574.28;5003490;28;20045;-57
2022/11/22 07:38:42;;;;;;;9.75;6.25;;;;;;;8.66;78.80;96569.16;5003413;28;20053;-62
2022/11/22 07:41:09;;;;;;;10.75;6.90;;;;;;;8.09;77.87;96489.28;4998254;28;20112;-58
2022/11/22 07:43:36;;;;;;;14.38;9.43;;;;;;;8.85;79.80;96580.09;5009576;28;20050;-58
2022/11/22 07:46:07;;;;;;;13.43;8.95;;;;;;;8.81;80.26;96557.16;5003619;28;20120;-63
2022/11/22 07:48:34;;;;;;;13.90;9.00;;;;;;;8.20;79.93;96435.91;5003257;28;20069;-63
2022/11/22 07:51:05;;;;;;;14.20;7.97;;;;;;;8.98;80.03;96571.25;5004541;28;20572;-61
2022/11/22 07:53:33;;;;;;;10.18;6.85;;;;;;;9.02;78.45;96574.06;5019028;28;20053;-60
2022/11/22 07:56:02;;;;;;;11.02;7.20;;;;;;;8.98;78.49;96540.03;5022949;28;20140;-60
2022/11/22 07:58:29;;;;;;;9.43;7.20;;;;;;;8.70;79.05;96471.41;5001792;28;20313;-59
2022/11/22 08:00:56;;;;;;;9.82;7.03;;;;;;;9.34;78.21;96553.22;5004357;28;20096;-64
2022/11/22 08:03:22;;;;;;;9.45;7.15;;;;;;;9.40;76.70;96557.25;5008092;28;20046;-62
2022/11/22 08:05:59;;;;;;;9.07;6.43;;;;;;;9.16;76.61;96517.06;5013584;28;20054;-65
2022/11/22 08:08:26;;;;;;;8.85;6.80;;;;;;;9.32;74.00;96529.88;5020207;28;20058;-58
2022/11/22 08:10:53;;;;;;;11.57;7.22;;;;;;;9.63;73.11;96554.38;5002069;28;20057;-60
2022/11/22 08:13:20;;;;;;;10.65;8.73;;;;;;;8.62;73.54;96408.16;5017635;28;20481;-62
2022/11/22 08:15:48;;;;;;;9.55;7.70;;;;;;;9.29;74.23;96586.69;5003390;28;20520;-56
2022/11/22 08:18:15;;;;;;;8.10;6.65;;;;;;;9.70;72.01;96585.69;5013647;28;20057;-60
2022/11/22 08:20:42;;;;;;;9.73;7.40;;;;;;;10.03;68.72;96585.69;5001375;28;20664;-65
2022/11/22 08:23:09;;;;;;;13.60;8.45;;;;;;;9.55;68.72;96505.72;5019455;28;20049;-62
2022/11/22 08:25:36;;;;;;;9.15;6.85;;;;;;;9.47;67.56;96488.22;5023546;28;20065;-62
2022/11/22 08:28:02;;;;;;;6.88;5.40;;;;;;;10.26;66.23;96575.31;5018195;28;20049;-58
2022/11/22 08:30:29;;;;;;;9.60;6.40;;;;;;;10.50;67.05;96580.31;5004079;28;20965;-58
2022/11/22 08:32:56;;;;;;;7.68;5.82;;;;;;;10.68;67.69;96578.47;5004298;28;20054;-60
2022/11/22 08:35:23;;;;;;;9.75;7.05;;;;;;;10.93;65.20;96586.22;5007042;28;20058;-63
2022/11/22 08:37:54;;;;;;;8.18;5.80;;;;;;;10.39;63.12;96496.34;5022453;28;20050;-61
2022/11/22 08:40:20;;;;;;;7.80;4.85;;;;;;;10.85;61.10;96570.69;5005958;28;20053;-58
2022/11/22 08:42:48;;;;;;;5.82;5.22;;;;;;;11.18;62.96;96581.66;5005255;28;20081;-72
2022/11/22 08:45:15;;;;;;;5.72;4.43;;;;;;;11.40;62.69;96583.38;5004152;28;20050;-64
2022/11/22 08:47:41;;;;;;;4.15;3.47;;;;;;;11.66;62.01;96574.84;5016695;28;20049;-66
2022/11/22 08:50:09;;;;;;;5.75;3.72;;;;;;;11.38;58.86;96519.22;5004238;28;20475;-66
2022/11/22 08:52:35;;;;;;;5.68;4.05;;;;;;;11.90;58.88;96574.97;5010648;28;20068;-64
2022/11/22 08:55:02;;;;;;;5.95;4.60;;;;;;;11.36;58.26;96457.78;5009056;28;20148;-58
2022/11/22 08:57:29;;;;;;;6.07;4.93;;;;;;;12.11;58.05;96566.72;4995354;28;20053;-62
2022/11/22 08:59:55;;;;;;;4.78;4.28;;;;;;;12.29;56.75;96575.09;5024037;28;20102;-57
2022/11/22 09:02:22;;;;;;;6.35;4.30;;;;;;;11.61;56.66;96553.81;5023564;28;20058;-64
2022/11/22 09:04:49;;;;;;;4.90;4.07;;;;;;;11.68;58.80;96555.84;5022047;28;20099;-63
2022/11/22 09:07:15;;;;;;;8.43;3.92;;;;;;;11.30;58.67;96495.41;5007146;28;20077;-65
2022/11/22 09:10:04;;;;;;;5.65;4.80;;;;;;;11.74;60.00;96537.63;5003833;28;20525;-57
2022/11/22 09:12:31;;;;;;;38.22;7.22;;;;;;;11.90;61.03;96535.34;5006986;28;20318;-58
2022/11/22 09:14:57;;;;;;;3.72;3.30;;;;;;;12.16;59.19;96515.56;5011766;28;20077;-58
2022/11/22 09:17:24;;;;;;;4.47;3.67;;;;;;;12.14;57.55;96520.72;5012940;28;20088;-58
2022/11/22 09:19:51;;;;;;;4.53;3.50;;;;;;;12.32;57.63;96518.78;5014730;28;20504;-57
2022/11/22 09:22:17;;;;;;;3.40;2.70;;;;;;;11.31;52.46;96411.03;5003144;28;20054;-57
2022/11/22 09:24:47;;;;;;;7.93;4.38;;;;;;;12.08;51.61;96513.97;4999783;28;20081;-59
2022/11/22 09:27:13;;;;;;;5.82;3.25;;;;;;;12.23;51.12;96498.94;4997522;28;20050;-59
2022/11/22 09:29:40;;;;;;;2.45;2.13;;;;;;;12.34;49.98;96494.19;5006765;28;20078;-63
2022/11/22 09:32:10;;;;;;;31.38;12.32;;;;;;;12.49;49.74;96481.88;5007249;28;20123;-64
2022/11/22 09:34:36;;;;;;;5.50;3.28;;;;;;;12.22;52.24;96486.22;5005656;28;20333;-62
2022/11/22 09:37:03;;;;;;;4.93;3.35;;;;;;;12.70;53.49;96473.56;5012932;28;20157;-60
2022/11/22 09:39:30;;;;;;;3.58;3.10;;;;;;;12.99;53.68;96468.75;5008306;28;20477;-54
2022/11/22 09:42:10;;;;;;;4.38;3.03;;;;;;;13.01;52.83;96469.19;5002353;28;20099;-55
2022/11/22 09:44:51;;;;;;;28.85;4.60;;;;;;;13.10;52.39;96464.78;5004857;28;20057;-63
2022/11/22 09:47:46;;;;;;;3.88;3.20;;;;;;;13.32;51.94;96463.56;5007996;28;20528;-55
2022/11/22 09:50:34;;;;;;;3.65;2.97;;;;;;;13.03;50.81;96434.22;5004112;28;20057;-67
2022/11/22 09:53:07;;;;;;;3.10;2.60;;;;;;;13.30;49.47;96407.53;4992754;28;20068;-69
2022/11/22 09:55:39;;;;;;;2.85;2.55;;;;;;;11.51;47.99;96124.66;5017240;28;20421;-69
2022/11/22 09:58:37;;;;;;;3.08;2.72;;;;;;;12.35;48.95;96454.09;5005462;28;20050;-62
2022/11/22 10:01:23;;;;;;;3.20;2.85;;;;;;;12.55;50.61;96446.97;5007153;28;20516;-60
2022/11/22 10:04:04;;;;;;;2.88;2.53;;;;;;;12.99;49.02;96447.28;5006156;28;20480;-60
2022/11/22 10:06:38;;;;;;;2.33;2.20;;;;;;;13.17;46.66;96419.47;5006326;28;20054;-64
2022/11/22 10:09:26;;;;;;;3.30;2.08;;;;;;;13.20;46.94;96419.47;5009962;28;20546;-63
2022/11/22 10:11:56;;;;;;;2.50;2.30;;;;;;;13.45;47.15;96409.03;5004079;28;20058;-63
2022/11/22 10:14:48;;;;;;;2.80;2.60;;;;;;;14.05;48.00;96455.28;5013961;28;20052;-61
2022/11/22 10:17:27;;;;;;;2.58;2.15;;;;;;;14.18;47.98;96456.38;5018659;28;20054;-61
2022/11/22 10:20:22;;;;;;;2.90;2.67;;;;;;;14.51;47.80;96447.41;5006037;28;20131;-60
2022/11/22 10:22:50;;;;;;;2.95;2.72;;;;;;;13.94;47.81;96368.22;5004516;28;20496;-60
2022/11/22 10:25:43;;;;;;;2.88;2.67;;;;;;;14.56;47.77;96449.75;5001790;28;20129;-60
2022/11/22 10:28:22;;;;;;;3.03;2.70;;;;;;;14.71;46.84;96456.81;5005303;28;20111;-66
2022/11/22 10:31:01;;;;;;;3.25;2.95;;;;;;;14.79;46.13;96453.56;5004609;28;20077;-60
2022/11/22 10:33:44;;;;;;;2.67;2.47;;;;;;;14.89;45.94;96458.22;5007269;28;20500;-57
2022/11/22 10:36:50;;;;;;;5.43;4.00;;;;;;;14.98;46.72;96454.97;5004125;28;20038;-58
2022/11/22 10:39:41;;;;;;;5.00;2.40;;;;;;;14.97;46.26;96453.38;5001772;28;20054;-61
2022/11/22 10:42:39;;;;;;;4.50;2.60;;;;;;;14.90;46.94;96445.09;5003871;28;20088;-59
2022/11/22 10:45:28;;;;;;;2.60;2.40;;;;;;;14.47;45.62;96379.75;5002469;28;20520;-60
2022/11/22 10:48:21;;;;;;;3.50;2.53;;;;;;;14.93;46.46;96430.31;5004169;28;20057;-60
2022/11/22 10:51:00;;;;;;;3.42;3.13;;;;;;;15.00;45.27;96431.03;5003402;28;20655;-56
2022/11/22 10:53:33;;;;;;;2.90;2.60;;;;;;;14.74;45.95;96433.69;5005862;28;20213;-57
2022/11/22 10:56:09;;;;;;;2.95;2.60;;;;;;;14.86;46.47;96436.75;5005291;28;20572;-56
2022/11/22 10:58:44;;;;;;;2.60;2.40;;;;;;;15.19;45.88;96433.22;5003758;28;20089;-60
2022/11/22 11:01:36;;;;;;;2.30;2.20;;;;;;;15.60;45.80;96424.00;5005146;28;20073;-60
2022/11/22 11:04:04;;;;;;;2.83;2.63;;;;;;;15.92;45.83;96414.00;5005329;28;20054;-57
2022/11/22 11:06:35;;;;;;;4.20;3.17;;;;;;;15.99;43.95;96413.09;5005409;28;20056;-60
2022/11/22 11:09:57;;;;;;;3.15;2.88;;;;;;;16.15;43.32;96404.91;5005389;28;20498;-60
2022/11/22 11:13:00;;;;;;;3.90;3.45;;;;;;;15.00;46.17;96413.53;5005259;28;20531;-60
2022/11/22 11:15:39;;;;;;;3.47;3.17;;;;;;;15.06;47.57;96428.59;5005263;28;20484;-57
2022/11/22 11:18:52;;;;;;;3.45;2.92;;;;;;;15.39;47.46;96424.25;5005295;28;20087;-60
2022/11/22 11:21:19;;;;;;;4.00;3.33;;;;;;;15.45;46.27;96423.38;5004039;28;20524;-57
2022/11/22 11:23:47;;;;;;;4.20;3.80;;;;;;;14.95;46.80;96422.31;5005169;28;20058;-62
2022/11/22 11:26:24;;;;;;;5.03;3.67;;;;;;;13.81;48.56;96353.19;4999962;28;20414;-58
2022/11/22 11:29:17;;;;;;;4.25;3.85;;;;;;;13.91;48.89;96424.72;4984034;28;20193;-60
2022/11/22 11:31:46;;;;;;;3.22;2.88;;;;;;;13.78;48.98;96406.91;4993041;28;20617;-56
2022/11/22 11:34:26;;;;;;;5.90;4.05;;;;;;;13.85;48.40;96409.66;5005053;28;20062;-57
2022/11/22 11:36:56;;;;;;;4.95;3.10;;;;;;;12.89;50.28;96353.63;5004610;28;20133;-59
2022/11/22 11:39:27;;;;;;;5.25;4.07;;;;;;;13.10;51.24;96406.38;5004786;28;20151;-61
2022/11/22 11:41:55;;;;;;;4.13;3.50;;;;;;;13.08;51.58;96406.03;5004661;28;20512;-61
2022/11/22 11:44:32;;;;;;;4.47;3.67;;;;;;;13.18;52.39;96399.63;5004008;28;20077;-58
2022/11/22 11:46:59;;;;;;;6.22;3.78;;;;;;;13.07;52.59;96359.94;5003920;28;20116;-60
2022/11/22 11:49:28;;;;;;;7.25;4.57;;;;;;;13.63;51.86;96406.97;5004918;28;20058;-56
2022/11/22 11:52:00;;;;;;;3.58;3.28;;;;;;;13.80;50.98;96396.94;5004495;28;20045;-57
2022/11/22 11:54:47;;;;;;;10.80;6.65;;;;;;;13.91;51.66;96385.75;5004780;28;20070;-61
2022/11/22 11:57:18;;;;;;;5.05;3.60;;;;;;;13.79;50.56;96334.13;5004780;28;20049;-61
2022/11/22 11:59:49;;;;;;;3.65;3.35;;;;;;;13.64;51.66;96377.94;5003337;28;20085;-57